Time;durP1;ratioP1;P1;durP2;ratioP2;P2;SDS_P1;SDS_P2;PMS_P1;PMS_P2;Temp;Humidity;BMP_temperature;BMP_pressure;BME280_temperature;BME280_humidity;BME280_pressure;Samples;Min_cycle;Max_cycle;Signal;HPM_P1;HPM_P2
2022/12/22 03:26:20;;;;;;;;;6.33;4.00;;;;;12.50;77.03;99862.69;5023615;28;45471;-64
2022/12/22 03:28:46;;;;;;;;;2.00;2.00;;;;;12.50;77.10;99852.16;5034167;28;45523;-63
2022/12/22 03:31:12;;;;;;;;;1.67;1.67;;;;;12.49;77.47;99853.09;5035673;28;45529;-63
2022/12/22 03:33:38;;;;;;;;;3.00;1.00;;;;;12.51;78.06;99851.19;5034478;28;45541;-63
2022/12/22 03:36:04;;;;;;;;;3.00;3.00;;;;;12.45;77.90;99863.91;5035649;28;45487;-63
2022/12/22 03:38:30;;;;;;;;;2.00;2.00;;;;;12.45;77.45;99870.00;5035402;28;46763;-63
2022/12/22 03:40:55;;;;;;;;;2.67;2.00;;;;;12.51;77.43;99858.28;5034427;28;45605;-63
2022/12/22 03:48:43;;;;;;;;;4.33;3.67;;;;;12.47;75.62;99862.88;5034379;28;45603;-63
2022/12/22 03:51:08;;;;;;;;;3.00;1.00;;;;;12.51;75.75;99874.09;5035205;28;45538;-63
2022/12/22 03:53:34;;;;;;;;;3.00;3.00;;;;;12.51;76.45;99877.56;5020291;28;46778;-63
2022/12/22 03:55:59;;;;;;;;;1.67;1.67;;;;;12.53;76.17;99888.91;5028503;28;45531;-63
2022/12/22 03:58:25;;;;;;;;;1.33;1.33;;;;;12.48;76.23;99882.19;5035183;28;45491;-63
2022/12/22 04:00:50;;;;;;;;;3.00;3.00;;;;;12.54;75.43;99872.13;5035284;28;45523;-64
2022/12/22 04:03:16;;;;;;;;;3.67;1.33;;;;;12.50;76.38;99883.81;5033993;28;45517;-63
2022/12/22 04:05:42;;;;;;;;;1.67;1.67;;;;;12.52;76.32;99883.69;5035361;28;45694;-64
2022/12/22 04:08:08;;;;;;;;;4.00;2.33;;;;;12.47;76.15;99883.97;5034923;28;46224;-63
2022/12/22 04:13:17;;;;;;;;;4.67;3.67;;;;;12.46;76.94;99887.53;5031416;28;45536;-63
2022/12/22 04:15:42;;;;;;;;;5.00;1.00;;;;;12.40;76.73;99871.19;5035273;28;45419;-63
2022/12/22 04:18:08;;;;;;;;;2.67;2.67;;;;;12.45;76.72;99898.19;5035067;28;46633;-63
2022/12/22 04:20:33;;;;;;;;;5.33;2.33;;;;;12.44;76.17;99917.56;5020665;28;45498;-63
2022/12/22 04:22:59;;;;;;;;;2.67;2.33;;;;;12.42;75.85;99914.16;5029727;28;45548;-63
2022/12/22 04:25:25;;;;;;;;;1.67;1.67;;;;;12.42;75.99;99916.81;5033849;28;45610;-64
2022/12/22 04:27:51;;;;;;;;;1.00;1.00;;;;;12.42;75.98;99928.19;5033191;28;46634;-63
2022/12/22 04:30:17;;;;;;;;;3.67;1.33;;;;;12.43;75.86;99903.53;5033331;28;45535;-63
2022/12/22 04:32:42;;;;;;;;;2.00;2.00;;;;;12.39;76.22;99907.28;5033957;28;45626;-63
2022/12/22 04:35:08;;;;;;;;;1.00;1.00;;;;;12.42;75.75;99930.84;5029842;28;45745;-63
2022/12/22 04:37:34;;;;;;;;;1.00;1.00;;;;;12.42;75.44;99949.28;5030316;28;45736;-63
2022/12/22 04:39:59;;;;;;;;;6.00;2.00;;;;;12.40;75.57;99952.94;5032389;28;45516;-63
2022/12/22 04:42:25;;;;;;;;;5.00;1.00;;;;;12.43;75.14;99956.25;5034429;28;45547;-63
2022/12/22 04:44:51;;;;;;;;;2.00;1.00;;;;;12.40;74.82;99961.72;5032461;28;45670;-63
2022/12/22 04:47:16;;;;;;;;;1.00;1.00;;;;;12.40;75.35;99981.97;5034494;28;46187;-63
2022/12/22 04:49:42;;;;;;;;;3.33;1.67;;;;;12.41;75.19;99983.66;5033964;28;45452;-63
2022/12/22 04:52:07;;;;;;;;;1.33;0.00;;;;;12.28;75.08;99979.03;5030166;28;45550;-63
2022/12/22 04:54:33;;;;;;;;;1.67;0.00;;;;;12.44;75.07;100018.66;5024290;28;45532;-63
2022/12/22 04:56:58;;;;;;;;;0.00;0.00;;;;;12.35;74.41;100000.66;5034593;28;45621;-63
2022/12/22 04:59:24;;;;;;;;;1.00;1.00;;;;;12.40;74.61;100016.25;5034353;28;45436;-63
2022/12/22 05:01:50;;;;;;;;;1.00;0.00;;;;;12.38;74.80;100025.09;5034498;28;45567;-63
2022/12/22 05:04:15;;;;;;;;;0.67;0.67;;;;;12.34;74.79;100026.16;5022775;28;45595;-63
2022/12/22 05:06:40;;;;;;;;;1.00;0.00;;;;;12.39;74.65;100049.69;5031459;28;45885;-63
2022/12/22 05:09:06;;;;;;;;;1.33;0.00;;;;;12.42;74.35;100053.94;5032952;28;45402;-63
2022/12/22 05:11:31;;;;;;;;;0.00;0.00;;;;;12.42;74.59;100053.94;5026793;28;45543;-63
2022/12/22 05:13:56;;;;;;;;;0.00;0.00;;;;;12.39;74.51;100054.94;5033355;28;45673;-63
2022/12/22 05:16:22;;;;;;;;;0.33;0.33;;;;;12.41;74.26;100063.63;5034267;28;46319;-63
2022/12/22 05:18:47;;;;;;;;;0.00;0.00;;;;;12.35;74.10;100064.78;5032843;28;45520;-63
2022/12/22 05:21:18;;;;;;;;;0.00;0.00;;;;;12.39;73.39;100070.78;5021604;28;45415;-64
2022/12/22 05:23:44;;;;;;;;;1.00;1.00;;;;;12.37;73.44;100072.63;5026901;28;45559;-63
2022/12/22 05:26:13;;;;;;;;;0.00;0.00;;;;;12.37;74.12;100065.56;5020169;28;46750;-63
2022/12/22 05:28:38;;;;;;;;;0.33;0.00;;;;;12.37;73.23;100068.19;5032980;28;45416;-63
2022/12/22 05:31:06;;;;;;;;;0.00;0.00;;;;;12.32;73.86;100064.94;5034019;28;45561;-63
2022/12/22 05:33:32;;;;;;;;;0.00;0.00;;;;;12.37;72.89;100088.44;5029146;28;45541;-63
2022/12/22 05:35:58;;;;;;;;;0.00;0.00;;;;;12.29;73.53;100069.53;5030250;28;46661;-63
2022/12/22 05:38:23;;;;;;;;;0.00;0.00;;;;;12.33;73.63;100077.22;5033228;28;45511;-64
2022/12/22 05:40:48;;;;;;;;;0.33;0.00;;;;;12.37;73.33;100101.63;5019038;28;45599;-64
2022/12/22 05:43:15;;;;;;;;;0.00;0.00;;;;;12.32;73.23;100095.75;5033218;28;45467;-63
2022/12/22 05:45:41;;;;;;;;;0.00;0.00;;;;;12.32;74.18;100096.59;5033842;28;45492;-63
2022/12/22 05:48:06;;;;;;;;;0.00;0.00;;;;;12.33;73.41;100105.34;5033660;28;45453;-63
2022/12/22 05:50:31;;;;;;;;;0.00;0.00;;;;;12.36;74.06;100118.41;5031354;28;45479;-63
2022/12/22 05:52:57;;;;;;;;;0.00;0.00;;;;;12.36;74.32;100126.31;5022588;28;45658;-63
2022/12/22 05:55:23;;;;;;;;;0.00;0.00;;;;;12.30;75.57;100123.97;5033725;28;45469;-63
2022/12/22 05:57:48;;;;;;;;;0.00;0.00;;;;;12.29;76.29;100125.75;5033486;28;45535;-64
2022/12/22 06:00:15;;;;;;;;;0.00;0.00;;;;;12.33;76.48;100131.72;5032808;28;45476;-63
2022/12/22 06:02:42;;;;;;;;;1.00;1.00;;;;;12.30;76.85;100129.22;5027454;28;45462;-63
2022/12/22 06:05:09;;;;;;;;;0.00;0.00;;;;;12.28;76.83;100129.34;5033589;28;46202;-63
2022/12/22 06:07:35;;;;;;;;;0.00;0.00;;;;;12.27;77.65;100132.03;5031162;28;45451;-63
2022/12/22 06:10:00;;;;;;;;;0.00;0.00;;;;;12.25;78.66;100147.06;5033368;28;45567;-63
2022/12/22 06:12:25;;;;;;;;;0.00;0.00;;;;;12.20;79.62;100159.63;5031659;28;45468;-63
2022/12/22 06:14:51;;;;;;;;;0.00;0.00;;;;;12.20;80.07;100151.72;5033469;28;45511;-63
2022/12/22 06:17:16;;;;;;;;;0.00;0.00;;;;;12.15;80.07;100149.31;5031571;28;45625;-63
2022/12/22 06:19:41;;;;;;;;;0.00;0.00;;;;;12.01;80.47;100135.94;5026525;28;45753;-63
2022/12/22 06:22:07;;;;;;;;;0.00;0.00;;;;;12.11;80.37;100156.50;5023230;28;45600;-63
2022/12/22 06:24:32;;;;;;;;;0.00;0.00;;;;;12.10;81.48;100169.78;5036532;28;45500;-63
2022/12/22 06:26:58;;;;;;;;;0.00;0.00;;;;;12.06;81.03;100155.03;5034911;28;45608;-63
2022/12/22 06:29:23;;;;;;;;;0.33;0.00;;;;;12.10;81.00;100169.78;5035152;28;45626;-63
2022/12/22 06:31:48;;;;;;;;;0.00;0.00;;;;;12.08;80.87;100167.19;5036779;28;45607;-63
2022/12/22 06:34:16;;;;;;;;;0.33;0.00;;;;;11.97;80.63;100139.66;5034993;28;47392;-63
2022/12/22 06:36:43;;;;;;;;;3.33;2.00;;;;;12.11;80.91;100164.41;5036607;28;45471;-63
2022/12/22 06:39:08;;;;;;;;;4.00;1.00;;;;;12.10;80.67;100186.44;5035661;28;45617;-63
2022/12/22 06:44:17;;;;;;;;;3.00;2.00;;;;;12.07;80.30;100193.66;5036889;28;45833;-63
2022/12/22 06:46:43;;;;;;;;;1.67;1.67;;;;;12.08;80.95;100204.09;5036329;28;45566;-63
2022/12/22 06:49:08;;;;;;;;;3.33;2.33;;;;;12.06;80.16;100207.75;5035184;28;45413;-63
2022/12/22 06:51:33;;;;;;;;;4.33;2.00;;;;;12.05;79.77;100206.88;5019049;28;45707;-63
2022/12/22 06:53:59;;;;;;;;;4.67;3.00;;;;;12.06;80.14;100211.25;5035860;28;47719;-63
2022/12/22 06:56:24;;;;;;;;;3.00;2.33;;;;;12.05;79.28;100203.41;5036236;28;45502;-63
2022/12/22 06:58:49;;;;;;;;;3.67;2.67;;;;;12.05;80.11;100206.88;5036407;28;45480;-62
2022/12/22 07:01:15;;;;;;;;;4.67;4.33;;;;;12.11;79.42;100218.91;5036081;28;45700;-63
2022/12/22 07:03:40;;;;;;;;;4.00;4.00;;;;;12.10;79.10;100217.22;5019342;28;46064;-63
2022/12/22 07:06:06;;;;;;;;;2.33;2.33;;;;;12.10;79.92;100220.72;5024853;28;45382;-63
2022/12/22 07:08:31;;;;;;;;;3.00;3.00;;;;;12.13;79.99;100217.91;5026303;28;45498;-63
2022/12/22 07:10:57;;;;;;;;;7.67;6.00;;;;;12.18;79.35;100224.78;5026768;28;45460;-63
2022/12/22 07:13:26;;;;;;;;;2.33;2.33;;;;;12.18;80.07;100225.63;5034410;28;46200;-63
2022/12/22 07:15:52;;;;;;;;;4.67;4.33;;;;;12.21;79.89;100237.81;5021123;28;45395;-62
2022/12/22 07:18:17;;;;;;;;;6.00;4.67;;;;;12.21;79.55;100240.44;5023164;28;45587;-62
2022/12/22 07:20:43;;;;;;;;;9.33;4.67;;;;;12.14;79.22;100231.94;5019921;28;45842;-62
2022/12/22 07:23:08;;;;;;;;;6.67;5.33;;;;;12.19;78.93;100243.13;5017533;28;45571;-62
2022/12/22 07:25:34;;;;;;;;;5.33;4.67;;;;;12.19;79.34;100242.28;5028929;28;45433;-62
2022/12/22 07:27:59;;;;;;;;;11.67;8.33;;;;;12.18;79.02;100235.31;5034385;28;45463;-62
2022/12/22 07:30:24;;;;;;;;;7.00;4.33;;;;;12.25;78.71;100248.13;5026096;28;45488;-62
2022/12/22 07:32:50;;;;;;;;;8.00;6.00;;;;;12.21;78.68;100236.00;5034930;28;45405;-63
2022/12/22 07:35:15;;;;;;;;;6.67;5.00;;;;;12.18;78.84;100235.31;5032360;28;45483;-63
2022/12/22 07:37:40;;;;;;;;;6.33;6.33;;;;;12.21;78.29;100246.56;5030755;28;45810;-63
2022/12/22 07:40:06;;;;;;;;;7.00;7.00;;;;;12.16;78.48;100248.56;5035326;28;45539;-64
2022/12/22 07:42:44;;;;;;;;;10.67;7.33;;;;;12.07;78.70;100236.69;5035958;28;45555;-64
2022/12/22 07:45:13;;;;;;;;;7.00;6.00;;;;;12.20;77.75;100260.69;5029297;28;45575;-64
2022/12/22 07:47:38;;;;;;;;;15.00;11.00;;;;;12.14;77.49;100250.41;5032462;28;45580;-63
2022/12/22 07:53:03;;;;;;;;;10.33;7.00;;;;;12.20;77.28;100260.69;5027569;28;45433;-63
2022/12/22 07:55:33;;;;;;;;;14.00;9.33;;;;;12.14;77.30;100250.41;5035195;28;46105;-63
2022/12/22 07:57:59;;;;;;;;;7.33;6.00;;;;;12.23;77.94;100268.44;5022763;28;45553;-63
2022/12/22 08:00:24;;;;;;;;;8.67;7.00;;;;;12.25;77.20;100261.31;5035249;28;45539;-63
2022/12/22 08:02:54;;;;;;;;;14.00;7.33;;;;;12.25;77.16;100255.16;5035070;28;46649;-61
2022/12/22 08:05:21;;;;;;;;;11.67;4.00;;;;;12.24;76.79;100264.88;5031857;28;45529;-61
2022/12/22 08:07:50;;;;;;;;;11.67;9.67;;;;;12.23;77.54;100263.16;5031114;28;45531;-61
2022/12/22 08:10:17;;;;;;;;;13.00;7.00;;;;;12.25;76.78;100263.97;5034319;28;45474;-61
2022/12/22 08:12:43;;;;;;;;;8.33;6.67;;;;;12.22;76.75;100264.06;5027167;28;45567;-61
2022/12/22 08:15:09;;;;;;;;;10.00;7.33;;;;;12.28;76.66;100276.16;5031321;28;45471;-60
2022/12/22 08:17:35;;;;;;;;;12.33;10.00;;;;;12.29;76.39;100283.13;5026489;28;45350;-60
2022/12/22 08:20:01;;;;;;;;;14.33;10.67;;;;;12.24;76.92;100277.19;5024651;28;45561;-61
2022/12/22 08:22:28;;;;;;;;;10.67;9.67;;;;;12.27;76.38;100279.69;5025518;28;45726;-61
2022/12/22 08:24:54;;;;;;;;;9.33;7.67;;;;;12.31;76.43;100286.53;5023913;28;45569;-61
2022/12/22 08:27:28;;;;;;;;;7.00;7.00;;;;;12.29;75.61;100285.75;5034098;28;45527;-61
2022/12/22 08:29:57;;;;;;;;;12.00;6.00;;;;;12.28;76.22;100287.53;5034428;28;45486;-61
2022/12/22 08:32:23;;;;;;;;;11.67;10.00;;;;;12.21;75.55;100282.63;5032066;28;46470;-61
2022/12/22 08:34:50;;;;;;;;;13.67;8.67;;;;;12.26;76.09;100292.03;5018088;28;45456;-61
2022/12/22 08:37:19;;;;;;;;;8.67;6.00;;;;;12.28;75.34;100291.97;5027203;28;45532;-60
2022/12/22 08:39:51;;;;;;;;;11.00;7.00;;;;;12.34;75.55;100304.84;5027084;28;45483;-61
2022/12/22 08:42:19;;;;;;;;;11.33;8.33;;;;;12.33;76.01;100296.09;5033972;28;45542;-61
2022/12/22 08:44:46;;;;;;;;;11.00;7.33;;;;;12.34;75.24;100289.03;5034390;28;45428;-60
2022/12/22 08:47:11;;;;;;;;;13.00;7.67;;;;;12.33;75.53;100287.28;5034231;28;45488;-62
2022/12/22 08:49:37;;;;;;;;;10.33;8.33;;;;;12.37;74.96;100292.38;5018992;28;45637;-62
2022/12/22 08:52:02;;;;;;;;;19.33;14.67;;;;;12.41;75.47;100298.34;5025577;28;45859;-62
2022/12/22 08:54:28;;;;;;;;;9.33;8.33;;;;;12.38;75.43;100285.31;5027344;28;45531;-61
2022/12/22 08:56:53;;;;;;;;;10.33;8.67;;;;;12.37;74.68;100283.59;5025184;28;45754;-62
2022/12/22 08:59:19;;;;;;;;;11.67;9.67;;;;;12.37;75.09;100286.25;5021463;28;45518;-60
2022/12/22 09:01:46;;;;;;;;;12.00;11.00;;;;;12.40;74.77;100294.00;5025424;28;45959;-61
2022/12/22 09:04:13;;;;;;;;;9.33;7.00;;;;;12.42;75.39;100286.03;5021598;28;45508;-61
2022/12/22 09:06:39;;;;;;;;;12.33;7.67;;;;;12.36;75.13;100280.13;5021272;28;45432;-60
2022/12/22 09:09:06;;;;;;;;;9.00;8.33;;;;;12.37;75.42;100289.72;5030758;28;45504;-61
2022/12/22 09:11:32;;;;;;;;;9.33;8.33;;;;;12.29;74.86;100276.06;5031996;28;46882;-62
2022/12/22 09:13:59;;;;;;;;;14.67;13.00;;;;;12.37;75.23;100291.50;5027929;28;45515;-61
2022/12/22 09:16:27;;;;;;;;;6.67;6.33;;;;;12.37;74.81;100286.25;5032410;28;45471;-61
2022/12/22 09:18:52;;;;;;;;;9.33;7.33;;;;;12.37;75.37;100284.44;5031601;28;45652;-61
2022/12/22 09:21:18;;;;;;;;;12.67;8.67;;;;;12.41;75.29;100293.06;5021260;28;45954;-60
2022/12/22 09:23:43;;;;;;;;;10.33;6.67;;;;;12.41;75.69;100294.84;5033353;28;45457;-62
2022/12/22 09:26:15;;;;;;;;;12.00;9.33;;;;;12.41;74.63;100297.47;5019962;28;45401;-62
2022/12/22 09:28:41;;;;;;;;;12.00;9.67;;;;;12.41;75.30;100298.34;5033395;28;45441;-61
2022/12/22 09:31:06;;;;;;;;;12.67;9.67;;;;;12.38;75.42;100290.56;5022069;28;45571;-61
2022/12/22 09:33:35;;;;;;;;;13.00;11.33;;;;;12.41;75.52;100290.41;5031888;28;45533;-61
2022/12/22 09:36:04;;;;;;;;;6.67;5.00;;;;;12.41;75.24;100292.22;5026170;28;45481;-61
2022/12/22 09:38:30;;;;;;;;;11.00;10.00;;;;;12.40;75.01;100290.50;5028845;28;45578;-61
2022/12/22 09:40:56;;;;;;;;;17.00;10.33;;;;;12.43;75.68;100296.47;5032894;28;45485;-62
2022/12/22 09:43:28;;;;;;;;;10.33;9.33;;;;;12.48;74.96;100301.56;5033933;28;45523;-61
2022/12/22 09:45:54;;;;;;;;;14.67;12.00;;;;;12.45;75.80;100307.81;5033130;28;45597;-61
2022/12/22 09:48:20;;;;;;;;;15.67;12.33;;;;;12.47;75.77;100316.53;5022086;28;45636;-62
2022/12/22 09:50:46;;;;;;;;;20.67;8.33;;;;;12.53;75.98;100320.66;5032687;28;45461;-60
2022/12/22 09:53:20;;;;;;;;;11.00;6.00;;;;;12.49;75.81;100316.44;5033038;28;45558;-62
2022/12/22 09:55:48;;;;;;;;;13.67;7.33;;;;;12.54;75.55;100327.63;5036274;28;45593;-61
2022/12/22 09:58:20;;;;;;;;;12.67;9.00;;;;;12.56;75.39;100331.06;5036796;28;45568;-62
2022/12/22 10:01:11;;;;;;;;;13.67;7.67;;;;;12.56;75.25;100326.63;5036484;28;45511;-60
2022/12/22 10:03:53;;;;;;;;;11.33;8.33;;;;;12.57;75.81;100320.44;5018426;28;45513;-62
2022/12/22 10:06:44;;;;;;;;;12.67;10.33;;;;;12.59;75.70;100321.19;5030998;28;46006;-60
2022/12/22 10:09:18;;;;;;;;;13.00;7.33;;;;;12.65;75.67;100321.84;5035250;28;45458;-61
2022/12/22 10:12:01;;;;;;;;;11.33;11.33;;;;;12.60;75.42;100314.16;5035883;28;46020;-60
2022/12/22 10:14:33;;;;;;;;;15.00;11.00;;;;;12.61;75.52;100315.84;5036217;28;45483;-61
2022/12/22 10:17:19;;;;;;;;;11.33;7.33;;;;;12.64;75.47;100309.59;5035696;28;45554;-61
2022/12/22 10:19:45;;;;;;;;;8.00;7.33;;;;;12.48;74.72;100277.81;5025964;28;45463;-61
2022/12/22 10:22:21;;;;;;;;;14.00;8.67;;;;;12.67;75.25;100312.06;5031665;28;46168;-60
2022/12/22 10:24:47;;;;;;;;;9.33;8.33;;;;;12.62;74.81;100303.53;5036217;28;45461;-61
2022/12/22 10:27:12;;;;;;;;;15.67;13.00;;;;;12.65;75.26;100313.91;5036180;28;45472;-64
2022/12/22 10:29:38;;;;;;;;;13.67;12.00;;;;;12.69;75.17;100318.13;5036197;28;45499;-61
2022/12/22 10:32:12;;;;;;;;;11.33;7.33;;;;;12.70;75.38;100311.91;5035701;28;45477;-60
2022/12/22 10:34:58;;;;;;;;;12.00;8.33;;;;;12.74;75.17;100310.84;5034846;28;45509;-61
2022/12/22 10:37:38;;;;;;;;;11.33;7.00;;;;;12.76;74.55;100306.31;5023573;28;45473;-60
2022/12/22 10:40:22;;;;;;;;;12.00;6.67;;;;;12.80;74.79;100313.19;5037196;28;46042;-59
2022/12/22 10:42:54;;;;;;;;;15.67;8.33;;;;;12.82;74.59;100308.69;5036410;28;45642;-62
2022/12/22 10:45:22;;;;;;;;;11.00;9.33;;;;;12.80;74.51;100315.81;5035603;28;45514;-61
2022/12/22 10:47:54;;;;;;;;;12.33;7.67;;;;;12.83;74.68;100315.66;5035929;28;45468;-61
2022/12/22 10:50:21;;;;;;;;;10.33;8.00;;;;;12.85;74.28;100319.09;5035590;28;45531;-62
2022/12/22 10:52:52;;;;;;;;;11.33;9.00;;;;;12.87;74.14;100305.78;5035352;28;47182;-62
2022/12/22 10:55:27;;;;;;;;;12.00;9.67;;;;;12.86;74.45;100306.75;5034694;28;45459;-60
2022/12/22 10:58:08;;;;;;;;;12.00;10.67;;;;;12.81;74.42;100299.03;5035456;28;45583;-62
2022/12/22 11:00:34;;;;;;;;;12.00;11.00;;;;;12.92;74.40;100302.03;5035805;28;45566;-62
2022/12/22 11:03:01;;;;;;;;;10.33;8.00;;;;;12.93;74.14;100302.88;5035280;28;45495;-61
2022/12/22 11:05:27;;;;;;;;;13.00;10.00;;;;;12.94;74.09;100299.28;5034537;28;45460;-62
2022/12/22 11:07:54;;;;;;;;;11.33;9.33;;;;;12.94;73.76;100302.78;5033810;28;45506;-62
2022/12/22 11:10:40;;;;;;;;;13.67;11.67;;;;;12.88;74.20;100295.19;5035157;28;45555;-62
2022/12/22 11:13:26;;;;;;;;;20.33;15.67;;;;;12.97;74.16;100305.25;5033373;28;46233;-62
2022/12/22 11:16:07;;;;;;;;;18.67;12.00;;;;;12.93;73.45;100290.53;5034740;28;45453;-61
2022/12/22 11:18:54;;;;;;;;;8.33;8.33;;;;;12.95;74.01;100299.22;5023747;28;45590;-61
2022/12/22 11:21:53;;;;;;;;;13.67;8.67;;;;;12.99;74.36;100289.38;5022454;28;45548;-62
2022/12/22 11:24:24;;;;;;;;;7.00;7.00;;;;;13.02;74.13;100300.63;5027963;28;46257;-62
2022/12/22 11:27:14;;;;;;;;;11.00;7.00;;;;;13.03;73.63;100290.94;5028661;28;45360;-61
2022/12/22 11:29:39;;;;;;;;;12.33;9.33;;;;;13.02;73.74;100292.69;5023132;28;45432;-61
2022/12/22 11:32:35;;;;;;;;;11.67;8.67;;;;;13.03;74.13;100286.50;5035137;28;45507;-58
2022/12/22 11:35:16;;;;;;;;;16.33;13.00;;;;;13.04;74.09;100287.34;5023608;28;45702;-62
2022/12/22 11:37:57;;;;;;;;;12.33;8.33;;;;;13.06;74.24;100282.84;5031893;28;45431;-58
2022/12/22 11:40:31;;;;;;;;;14.67;11.67;;;;;13.07;73.26;100291.63;5026373;28;45695;-54
2022/12/22 11:43:09;;;;;;;;;15.33;13.67;;;;;13.08;73.36;100285.41;5033887;28;45603;-57
2022/12/22 11:46:05;;;;;;;;;15.00;13.00;;;;;13.07;73.79;100281.91;5030890;28;46078;-63
2022/12/22 11:48:37;;;;;;;;;24.33;21.33;;;;;13.10;74.12;100281.75;5024524;28;45493;-63
2022/12/22 11:51:30;;;;;;;;;15.33;15.00;;;;;13.08;73.49;100280.97;5032707;28;45708;-63
2022/12/22 11:54:03;;;;;;;;;25.33;18.67;;;;;13.07;74.08;100268.72;5023673;28;45610;-66
2022/12/22 11:56:36;;;;;;;;;20.00;14.00;;;;;13.11;73.52;100264.13;5031544;28;46080;-62
2022/12/22 11:59:03;;;;;;;;;13.33;13.00;;;;;13.15;73.48;100270.97;5032458;28;45476;-62
2022/12/22 12:01:47;;;;;;;;;13.33;11.67;;;;;13.16;74.21;100252.38;5029029;28;45559;-68
2022/12/22 12:04:38;;;;;;;;;12.67;9.33;;;;;13.14;73.93;100258.69;5021591;28;45643;-66
2022/12/22 12:07:21;;;;;;;;;13.00;8.67;;;;;13.15;73.79;100258.59;5032065;28;45628;-65
2022/12/22 12:10:26;;;;;;;;;14.67;9.67;;;;;13.12;73.75;100250.00;5034432;28;45521;-65
2022/12/22 12:12:57;;;;;;;;;15.00;11.67;;;;;13.14;73.84;100251.63;4955115;28;45431;-67
2022/12/22 12:15:39;;;;;;;;;12.67;9.67;;;;;13.15;73.94;100244.56;5013622;28;45634;-57
2022/12/22 12:18:17;;;;;;;;;11.33;8.00;;;;;13.15;73.91;100240.13;5020236;28;45767;-60
2022/12/22 12:21:04;;;;;;;;;9.33;8.33;;;;;13.15;74.05;100234.00;5015221;28;45607;-60
2022/12/22 12:24:01;;;;;;;;;10.00;8.67;;;;;13.14;73.94;100233.16;5015570;28;45593;-61
2022/12/22 12:26:57;;;;;;;;;13.00;8.33;;;;;13.17;73.69;100232.13;5022467;28;45463;-59
2022/12/22 12:29:39;;;;;;;;;7.00;7.00;;;;;13.07;73.99;100209.78;5033828;28;46344;-61
2022/12/22 12:32:17;;;;;;;;;12.67;10.67;;;;;13.14;73.94;100213.81;5024479;28;45509;-59
2022/12/22 12:34:47;;;;;;;;;12.67;9.00;;;;;13.14;74.24;100211.19;5020818;28;45410;-58
2022/12/22 12:37:29;;;;;;;;;11.33;7.00;;;;;13.15;73.70;100210.22;5033254;28;45580;-58
2022/12/22 12:40:06;;;;;;;;;11.33;6.33;;;;;13.14;73.32;100196.19;5020522;28;47314;-58
2022/12/22 12:42:35;;;;;;;;;8.00;8.00;;;;;13.16;73.89;100193.44;5032365;28;45424;-55
2022/12/22 12:45:01;;;;;;;;;10.33;8.00;;;;;13.10;73.92;100194.63;5021793;28;45364;-58
2022/12/22 12:47:31;;;;;;;;;13.33;12.00;;;;;13.12;74.21;100191.91;5030432;28;45500;-57
2022/12/22 12:50:32;;;;;;;;;13.67;8.67;;;;;13.11;73.97;100195.47;5032213;28;46734;-58
2022/12/22 12:52:58;;;;;;;;;11.67;8.67;;;;;13.12;73.99;100191.91;5027508;28;45528;-58
2022/12/22 12:55:29;;;;;;;;;13.00;10.67;;;;;13.13;74.13;100189.16;5032405;28;46078;-62
2022/12/22 12:57:56;;;;;;;;;12.33;10.33;;;;;13.11;74.33;100179.63;5033762;28;45429;-61
2022/12/22 13:00:31;;;;;;;;;12.33;10.33;;;;;13.11;74.65;100177.88;5029163;28;45647;-60
2022/12/22 13:03:01;;;;;;;;;10.67;7.33;;;;;13.11;74.13;100174.34;5032066;28;45523;-60
2022/12/22 13:05:56;;;;;;;;;11.33;9.00;;;;;13.10;74.90;100180.56;5018411;28;45591;-53
2022/12/22 13:08:30;;;;;;;;;10.33;7.00;;;;;13.11;75.16;100174.34;5031005;28;45592;-52
2022/12/22 13:10:55;;;;;;;;;17.00;13.00;;;;;13.09;75.09;100161.25;5027585;28;45564;-52
2022/12/22 13:13:21;;;;;;;;;9.67;6.33;;;;;13.08;75.58;100156.03;5029988;28;45589;-56
2022/12/22 13:16:07;;;;;;;;;10.67;8.00;;;;;13.05;76.51;100157.88;5032977;28;45490;-55
2022/12/22 13:18:32;;;;;;;;;8.33;6.33;;;;;13.04;75.97;100153.56;5026332;28;45619;-54
2022/12/22 13:21:07;;;;;;;;;12.33;8.33;;;;;12.99;76.25;100149.44;5032068;28;46180;-57
2022/12/22 13:23:40;;;;;;;;;7.00;7.00;;;;;12.93;76.54;100137.44;5033816;28;45505;-52
2022/12/22 13:26:12;;;;;;;;;11.00;8.00;;;;;12.97;76.88;100143.41;5033754;28;45577;-54
2022/12/22 13:28:41;;;;;;;;;8.67;8.00;;;;;12.97;76.41;100144.25;5033779;28;45531;-52
2022/12/22 13:31:19;;;;;;;;;11.67;10.00;;;;;12.96;76.93;100141.69;5036865;28;46941;-51
2022/12/22 13:33:51;;;;;;;;;8.33;6.00;;;;;12.91;76.92;100131.38;5037253;28;45503;-54
2022/12/22 13:36:25;;;;;;;;;13.00;8.00;;;;;12.91;77.24;100130.53;5031703;28;45512;-54
2022/12/22 13:39:02;;;;;;;;;12.67;7.00;;;;;12.91;77.24;100122.59;5036428;28;46017;-51
2022/12/22 13:41:48;;;;;;;;;8.33;7.33;;;;;12.92;77.19;100119.03;5036939;28;46042;-54
2022/12/22 13:44:30;;;;;;;;;11.00;8.00;;;;;12.87;78.22;100121.94;5037577;28;45436;-56
2022/12/22 13:47:02;;;;;;;;;12.00;11.33;;;;;12.86;77.63;100114.94;5037061;28;45515;-55
2022/12/22 13:49:31;;;;;;;;;7.33;6.67;;;;;12.86;77.58;100099.09;5036774;28;45519;-55
2022/12/22 13:51:58;;;;;;;;;11.00;8.00;;;;;12.83;78.20;100107.19;5036996;28;45939;-53
2022/12/22 13:54:36;;;;;;;;;10.33;8.00;;;;;12.85;77.80;100100.03;5036721;28;45468;-55
2022/12/22 13:57:04;;;;;;;;;9.67;7.33;;;;;12.84;77.83;100103.59;5037039;28;45567;-55
2022/12/22 13:59:34;;;;;;;;;13.00;8.00;;;;;12.85;78.85;100107.94;5036857;28;45558;-55
2022/12/22 14:02:03;;;;;;;;;15.33;11.33;;;;;12.83;78.40;100101.91;5036471;28;45512;-53
2022/12/22 14:04:29;;;;;;;;;11.67;8.00;;;;;12.75;78.55;100083.81;5036616;28;45511;-53
2022/12/22 14:06:55;;;;;;;;;5.67;4.00;;;;;12.79;78.53;100095.09;5030397;28;45496;-53
2022/12/22 14:09:26;;;;;;;;;13.33;7.33;;;;;12.76;79.02;100088.19;5036504;28;45549;-55
2022/12/22 14:12:03;;;;;;;;;10.67;9.67;;;;;12.77;79.34;100091.66;5036243;28;45572;-51
2022/12/22 14:14:37;;;;;;;;;14.67;8.00;;;;;12.76;79.30;100088.19;5036456;28;45479;-51
2022/12/22 14:17:12;;;;;;;;;8.00;8.00;;;;;12.74;79.52;100082.13;5036440;28;45400;-56
2022/12/22 14:19:37;;;;;;;;;11.00;7.67;;;;;12.69;79.48;100076.22;5026557;28;45384;-56
2022/12/22 14:22:12;;;;;;;;;12.33;7.00;;;;;12.71;79.63;100077.03;5027334;28;45519;-61
2022/12/22 14:24:53;;;;;;;;;10.67;8.67;;;;;12.71;79.76;100071.75;5021942;28;45432;-62
2022/12/22 14:27:45;;;;;;;;;10.67;6.67;;;;;12.75;79.88;100073.28;5035753;28;45606;-61
2022/12/22 14:30:17;;;;;;;;;9.33;7.67;;;;;12.69;79.69;100054.28;5034961;28;45502;-62
2022/12/22 14:32:46;;;;;;;;;11.00;7.67;;;;;12.75;79.59;100073.28;5027060;28;46165;-62
2022/12/22 14:35:20;;;;;;;;;8.00;6.00;;;;;12.75;79.93;100075.91;5028824;28;45516;-62
2022/12/22 14:37:49;;;;;;;;;9.33;6.33;;;;;12.76;79.73;100072.34;5035258;28;45566;-61
2022/12/22 14:40:31;;;;;;;;;13.00;9.00;;;;;12.76;80.22;100072.34;5035092;28;45436;-60
2022/12/22 14:42:59;;;;;;;;;13.00;9.33;;;;;12.74;80.27;100050.47;5035115;28;45481;-60
2022/12/22 14:45:25;;;;;;;;;7.33;6.67;;;;;12.73;80.54;100037.34;5036209;28;45478;-60
2022/12/22 14:47:52;;;;;;;;;10.33;8.00;;;;;12.78;80.73;100035.31;5033890;28;45495;-61
2022/12/22 14:50:23;;;;;;;;;7.67;6.00;;;;;12.77;80.40;100028.34;5034346;28;45678;-61
2022/12/22 14:52:52;;;;;;;;;7.67;5.67;;;;;12.79;80.65;100018.56;5035276;28;46138;-61
2022/12/22 14:55:28;;;;;;;;;7.00;7.00;;;;;12.80;80.51;100007.06;5035724;28;45511;-62
2022/12/22 14:58:02;;;;;;;;;5.33;5.00;;;;;12.77;80.37;99996.69;5035853;28;45479;-62
2022/12/22 15:00:32;;;;;;;;;9.67;9.67;;;;;12.78;80.83;100001.84;5034041;28;45481;-64
2022/12/22 15:03:02;;;;;;;;;5.00;5.00;;;;;12.75;80.61;99990.63;5025883;28;45464;-62
2022/12/22 15:05:32;;;;;;;;;5.00;5.00;;;;;12.75;80.54;99977.44;5032652;28;45413;-61
2022/12/22 15:07:58;;;;;;;;;5.67;5.67;;;;;12.78;80.80;99979.91;5036091;28;45550;-62
2022/12/22 15:10:27;;;;;;;;;8.00;4.00;;;;;12.77;80.67;99973.78;5035786;28;45551;-62
2022/12/22 15:12:57;;;;;;;;;8.67;7.33;;;;;12.76;80.74;99965.94;5035364;28;45501;-63
2022/12/22 15:15:23;;;;;;;;;8.33;8.33;;;;;12.74;81.34;99957.28;5035639;28;45507;-61